Terminal Aerodrome Forecast
Issued by NWS

Home | Current Version | Previous Version | Text Only | Print | Product List | Glossary On
Versions: 1 2 3 4 5 6 7 8 9 10 11 12 13 14 15 16 17 18 19 20 21 22 23 24 25 26 27 28
000
FTUS45 KLKN 061721
TAFTPH
TAF
KTPH 061721Z 0618/0718 18007KT P6SM SCT200
     FM062100 20010G20KT P6SM VCTS BKN110CB
     FM070400 34010KT P6SM SCT110 BKN200=

USA.gov is the U.S. government's official web portal to all federal, state and local government web resources and services.